Time;durP1;ratioP1;P1;durP2;ratioP2;P2;SDS_P1;SDS_P2;PMS_P1;PMS_P2;Temp;Humidity;BMP_temperature;BMP_pressure;BME280_temperature;BME280_humidity;BME280_pressure;Samples;Min_cycle;Max_cycle;Signal;HPM_P1;HPM_P2
2022/01/04 00:00:07;;;;;;;4.70;2.00;;;;;;;18.15;57.33;100177.91;4855574;29;20037;-79
2022/01/04 00:02:33;;;;;;;6.35;2.30;;;;;;;18.15;57.44;100167.47;4870104;29;20515;-80
2022/01/04 00:04:58;;;;;;;4.30;1.73;;;;;;;18.14;57.24;100159.69;4855366;29;20041;-80
2022/01/04 00:07:23;;;;;;;5.00;2.10;;;;;;;18.14;57.26;100162.31;4840464;29;20127;-80
2022/01/04 00:09:52;;;;;;;6.32;2.10;;;;;;;18.13;57.04;100153.63;4855376;29;20543;-80
2022/01/04 00:15:03;;;;;;;3.83;1.63;;;;;;;18.14;57.14;100150.16;4886476;29;20040;-80
2022/01/04 00:17:29;;;;;;;4.55;1.92;;;;;;;18.14;57.13;100144.06;4870218;29;20033;-80
2022/01/04 00:19:54;;;;;;;5.60;1.90;;;;;;;18.13;57.06;100132.81;4870612;29;20040;-80
2022/01/04 00:22:20;;;;;;;5.63;1.70;;;;;;;18.15;57.12;100140.59;4872962;29;20122;-80
2022/01/04 00:24:45;;;;;;;5.70;1.80;;;;;;;18.14;57.06;100133.66;4857861;29;20072;-80
2022/01/04 00:27:10;;;;;;;4.20;1.90;;;;;;;18.13;57.13;100122.41;4872805;29;20033;-81
2022/01/04 00:29:36;;;;;;;5.60;1.90;;;;;;;18.14;57.03;100115.44;4841508;29;20101;-80
2022/01/04 00:32:01;;;;;;;5.85;1.92;;;;;;;18.13;56.92;100108.53;4873270;29;20027;-80
2022/01/04 00:34:27;;;;;;;5.57;1.70;;;;;;;18.13;57.20;100104.16;4857670;29;20033;-81
2022/01/04 00:36:52;;;;;;;5.78;1.90;;;;;;;18.13;57.15;100098.09;4858205;29;20072;-81
2022/01/04 00:39:18;;;;;;;4.88;1.98;;;;;;;18.13;56.97;100092.91;4842332;29;20041;-80
2022/01/04 00:41:46;;;;;;;3.60;1.60;;;;;;;18.13;57.12;100090.28;4841822;29;20483;-80
2022/01/04 00:44:11;;;;;;;4.40;1.60;;;;;;;18.13;56.89;100093.75;4856917;29;20045;-80
2022/01/04 00:46:37;;;;;;;3.92;1.65;;;;;;;18.12;56.79;100085.97;4872252;29;20483;-80
2022/01/04 00:49:11;;;;;;;5.13;1.60;;;;;;;18.12;57.02;100083.34;4843310;29;20032;-81
2022/01/04 00:51:43;;;;;;;4.95;1.77;;;;;;;18.13;56.99;100072.91;4872696;29;20067;-79
2022/01/04 00:54:10;;;;;;;5.60;1.98;;;;;;;18.12;56.97;100068.63;4872445;29;20037;-80
2022/01/04 00:56:36;;;;;;;4.65;1.77;;;;;;;18.12;56.83;100067.75;4869774;29;20040;-80
2022/01/04 00:59:02;;;;;;;4.88;1.83;;;;;;;18.13;56.92;100070.31;4878082;29;20041;-80
2022/01/04 01:01:28;;;;;;;4.63;1.70;;;;;;;18.13;57.09;100072.06;4878599;29;20054;-81
2022/01/04 01:03:54;;;;;;;4.70;1.60;;;;;;;18.12;56.97;100072.94;4864838;29;20021;-80
2022/01/04 01:06:20;;;;;;;4.13;1.77;;;;;;;18.11;56.84;100072.09;4877460;29;20527;-80
2022/01/04 01:08:45;;;;;;;4.15;1.63;;;;;;;18.12;56.93;100067.75;4860191;29;20104;-79
2022/01/04 01:11:11;;;;;;;4.20;1.70;;;;;;;18.11;56.66;100061.69;4841458;29;20132;-79
2022/01/04 01:13:37;;;;;;;5.25;2.17;;;;;;;18.12;56.59;100054.72;4871015;29;20064;-79
2022/01/04 01:16:03;;;;;;;4.88;1.70;;;;;;;18.11;56.70;100055.63;4869613;29;20045;-79
2022/01/04 01:18:29;;;;;;;5.28;1.50;;;;;;;18.12;56.69;100049.50;4870014;29;20037;-79
2022/01/04 01:20:54;;;;;;;5.38;1.60;;;;;;;18.11;56.81;100048.66;4854414;29;20083;-80
2022/01/04 01:23:20;;;;;;;4.35;1.48;;;;;;;18.11;56.75;100046.06;4870159;29;20041;-80
2022/01/04 01:25:47;;;;;;;4.85;1.70;;;;;;;18.11;56.74;100045.22;4869240;29;20068;-79
2022/01/04 01:28:14;;;;;;;3.63;1.48;;;;;;;18.11;56.91;100033.03;4867466;29;20037;-79
2022/01/04 01:30:41;;;;;;;5.88;1.73;;;;;;;18.12;56.83;100036.50;4867578;29;20072;-79
2022/01/04 01:33:06;;;;;;;3.50;1.50;;;;;;;18.12;56.51;100033.88;4866998;29;20043;-79
2022/01/04 01:35:33;;;;;;;5.10;1.67;;;;;;;18.11;56.76;100038.25;4866295;29;20033;-79
2022/01/04 01:37:59;;;;;;;4.22;1.42;;;;;;;18.12;56.61;100039.09;4866383;29;20432;-79
2022/01/04 01:40:25;;;;;;;4.40;1.83;;;;;;;18.10;56.84;100031.34;4883012;29;20055;-79
2022/01/04 01:42:50;;;;;;;5.72;1.60;;;;;;;18.10;56.52;100023.53;4866887;29;20037;-79
2022/01/04 01:45:17;;;;;;;3.33;1.48;;;;;;;18.10;56.80;100020.94;4883487;29;20570;-79
2022/01/04 01:47:44;;;;;;;5.50;1.58;;;;;;;18.09;56.57;100012.28;4867511;29;20111;-79
2022/01/04 01:50:11;;;;;;;4.03;1.50;;;;;;;18.09;56.65;100014.88;4883379;29;20041;-79
2022/01/04 01:52:38;;;;;;;4.50;1.83;;;;;;;18.11;56.67;100006.16;4851741;29;20516;-79
2022/01/04 01:55:04;;;;;;;4.13;1.60;;;;;;;18.10;56.56;100010.53;4866538;29;20033;-79
2022/01/04 01:57:29;;;;;;;4.60;1.73;;;;;;;18.11;56.64;99998.34;4866947;29;20104;-79
2022/01/04 01:59:54;;;;;;;3.80;1.67;;;;;;;18.10;56.69;100000.09;4851828;29;20500;-79
2022/01/04 02:02:20;;;;;;;3.95;1.30;;;;;;;18.09;56.60;99993.16;4851750;29;20070;-78
2022/01/04 02:04:45;;;;;;;4.90;1.70;;;;;;;18.09;56.69;99994.03;4867495;29;20128;-78
2022/01/04 02:07:12;;;;;;;4.22;1.80;;;;;;;18.09;56.45;99982.75;4852554;29;20049;-78
2022/01/04 02:09:41;;;;;;;4.55;1.65;;;;;;;18.08;56.46;99987.09;4866680;29;20132;-79
2022/01/04 02:12:08;;;;;;;4.38;1.60;;;;;;;18.09;56.44;99964.53;4867641;29;20047;-80
2022/01/04 02:14:33;;;;;;;4.30;1.52;;;;;;;18.07;56.70;99964.59;4866981;29;20128;-79
2022/01/04 05:30:28;;;;;;;2.50;1.25;;;;;;;17.92;56.17;99707.28;5953518;23;20024;31
2022/01/04 06:47:05;;;;;;;18.50;3.90;;;;;;;18.25;56.71;99650.75;5955289;23;20125;31
2022/01/04 09:20:45;;;;;;;6.35;1.90;;;;;;;18.33;56.38;99686.94;4884982;29;20044;-83
2022/01/04 09:38:41;;;;;;;4.85;1.95;;;;;;;18.39;56.46;99698.94;5799215;23;20099;-82
2022/01/04 09:47:03;;;;;;;5.60;1.70;;;;;;;18.44;56.17;99695.31;4919552;23;20058;-82
2022/01/04 09:49:29;;;;;;;4.28;1.70;;;;;;;18.52;55.90;99695.06;4866281;29;20037;-82
2022/01/04 11:49:11;;;;;;;1.98;0.95;;;;;;;18.49;55.50;99815.84;5334862;23;20128;-79
2022/01/04 11:51:39;;;;;;;2.78;0.95;;;;;;;18.49;55.55;99815.00;4851531;29;20046;-78
2022/01/04 11:54:16;;;;;;;1.95;0.90;;;;;;;18.48;55.56;99821.94;4837447;29;20495;-77
2022/01/04 11:56:53;;;;;;;2.20;1.08;;;;;;;18.48;55.38;99828.91;4839558;29;20042;-78
2022/01/04 11:59:25;;;;;;;1.88;0.90;;;;;;;18.47;55.53;99817.66;4837768;29;20404;-78
2022/01/04 12:01:52;;;;;;;2.07;0.90;;;;;;;18.47;55.57;99825.47;4835541;29;20489;-78
2022/01/04 12:04:48;;;;;;;2.63;0.95;;;;;;;18.48;55.61;99827.16;4833698;29;20041;-78
2022/01/04 12:07:39;;;;;;;4.18;1.00;;;;;;;18.50;55.53;99827.97;4835478;29;20066;-78
2022/01/04 12:10:20;;;;;;;9.93;1.30;;;;;;;18.52;55.31;99824.47;4835988;29;20504;-78
2022/01/04 12:12:59;;;;;;;4.45;1.33;;;;;;;18.53;55.21;99821.84;4853351;29;20082;-77
2022/01/04 12:15:33;;;;;;;1.38;0.85;;;;;;;18.56;55.27;99821.72;4836099;29;20041;-78
2022/01/04 12:18:08;;;;;;;1.83;0.90;;;;;;;18.55;55.31;99820.00;4835644;29;20046;-78
2022/01/04 12:20:42;;;;;;;2.45;1.00;;;;;;;18.57;55.12;99828.63;4837362;29;20045;-78
2022/01/04 12:23:26;;;;;;;1.80;0.82;;;;;;;18.55;55.12;99825.22;4852235;29;20106;-78
2022/01/04 12:26:06;;;;;;;2.13;0.75;;;;;;;18.56;55.19;99828.69;4853898;29;20084;-78
2022/01/04 12:28:36;;;;;;;1.60;0.98;;;;;;;18.58;55.04;99813.88;4837670;29;20046;-78
2022/01/04 12:31:13;;;;;;;3.90;1.13;;;;;;;18.60;55.18;99810.31;4838241;29;20049;-79
2022/01/04 12:33:41;;;;;;;3.35;0.90;;;;;;;18.61;55.33;99816.38;4837793;29;20071;-80
2022/01/04 12:36:07;;;;;;;2.40;1.00;;;;;;;18.61;54.98;99824.19;4851921;29;20141;-78
2022/01/04 12:38:34;;;;;;;3.38;1.00;;;;;;;18.61;54.74;99816.38;4833291;29;20114;-79
2022/01/04 12:41:01;;;;;;;3.00;0.80;;;;;;;18.61;55.04;99829.41;4834763;29;20052;-78
2022/01/04 12:43:27;;;;;;;1.52;0.68;;;;;;;18.59;54.80;99813.81;4838088;29;20105;-78
2022/01/04 12:46:01;;;;;;;2.15;0.90;;;;;;;18.57;54.96;99813.00;4837915;29;20038;-77
2022/01/04 12:48:50;;;;;;;2.30;0.95;;;;;;;18.58;54.97;99822.53;4845146;29;20060;-78
2022/01/04 12:51:26;;;;;;;1.20;0.80;;;;;;;18.57;54.80;99807.78;4841592;29;20042;-77
2022/01/04 12:53:57;;;;;;;2.20;0.70;;;;;;;18.57;55.03;99812.16;4871534;29;20034;-77
2022/01/04 12:56:23;;;;;;;3.05;1.08;;;;;;;18.54;54.79;99804.44;4840586;29;20041;-78
2022/01/04 12:58:48;;;;;;;2.45;0.80;;;;;;;18.56;54.82;99807.84;4856463;29;20041;-79
2022/01/04 13:01:14;;;;;;;5.35;0.98;;;;;;;18.59;54.73;99794.72;4839855;29;20049;-78
2022/01/04 13:03:39;;;;;;;3.38;1.00;;;;;;;18.61;54.50;99787.72;4853103;29;20358;-78
2022/01/04 13:06:05;;;;;;;3.38;1.00;;;;;;;18.64;54.44;99792.81;4852858;29;20041;-79
2022/01/04 13:08:32;;;;;;;2.17;0.82;;;;;;;18.65;54.59;99787.56;4837626;29;20045;-79
2022/01/04 13:11:05;;;;;;;2.50;1.00;;;;;;;18.64;54.58;99785.00;4852239;29;20042;-79
2022/01/04 13:13:30;;;;;;;1.77;0.70;;;;;;;18.63;54.50;99784.16;4851155;29;20447;-78
2022/01/04 13:16:25;;;;;;;2.80;1.10;;;;;;;18.65;54.20;99774.53;4818954;29;20033;-78
2022/01/04 13:18:51;;;;;;;1.25;0.60;;;;;;;18.66;54.54;99771.06;4849259;29;20046;-79
2022/01/04 13:21:18;;;;;;;1.67;0.95;;;;;;;18.67;54.20;99777.97;4849234;29;20052;-79
2022/01/04 13:23:44;;;;;;;1.30;0.60;;;;;;;18.65;54.52;99774.53;4840512;29;20045;-80
2022/01/04 13:26:13;;;;;;;2.70;0.77;;;;;;;18.67;54.41;99777.09;4853626;29;20477;-79
2022/01/04 13:28:39;;;;;;;1.65;0.70;;;;;;;18.64;54.20;99775.47;4851860;29;20128;-79
2022/01/04 13:31:04;;;;;;;1.95;0.77;;;;;;;18.62;54.53;99776.41;4867185;29;20085;-79
2022/01/04 13:33:32;;;;;;;2.10;0.90;;;;;;;18.62;54.33;99784.22;4868373;29;20067;-78
2022/01/04 13:35:58;;;;;;;3.22;0.90;;;;;;;18.61;54.67;99788.56;4850313;29;20369;-78
2022/01/04 13:38:26;;;;;;;1.63;0.70;;;;;;;18.61;54.46;99792.94;4850190;29;20042;-77
2022/01/04 13:40:55;;;;;;;2.13;0.70;;;;;;;18.60;54.39;99799.91;4851800;29;20042;-78
2022/01/04 13:43:28;;;;;;;3.38;0.80;;;;;;;18.60;54.39;99796.44;4851690;29;20041;-78
2022/01/04 13:45:56;;;;;;;3.20;1.05;;;;;;;18.61;54.47;99796.38;4835103;29;20085;-77
2022/01/04 13:48:27;;;;;;;4.05;0.80;;;;;;;18.62;54.30;99792.88;4848988;29;20057;-78
2022/01/04 13:50:53;;;;;;;1.88;0.73;;;;;;;18.65;54.58;99797.16;4867437;29;20037;-78
2022/01/04 13:53:23;;;;;;;1.60;0.60;;;;;;;18.64;54.25;99801.50;4850168;29;20040;-79
2022/01/04 13:55:51;;;;;;;1.98;0.60;;;;;;;18.65;54.40;99802.34;4865436;29;20033;-79
2022/01/04 13:58:49;;;;;;;2.42;0.90;;;;;;;18.64;54.29;99804.13;4847040;29;20089;-79
2022/01/04 14:01:36;;;;;;;2.17;0.63;;;;;;;18.65;54.32;99800.59;4863956;29;20045;-79
2022/01/04 14:04:13;;;;;;;2.17;0.70;;;;;;;18.64;54.22;99793.69;4869023;29;20404;-79
2022/01/04 14:06:46;;;;;;;1.60;0.70;;;;;;;18.65;54.01;99802.34;4852454;29;20033;-79
2022/01/04 14:09:33;;;;;;;;;;;;;;;18.65;54.25;99805.81;4850650;29;20030;-79
2022/01/04 14:12:02;;;;;;;1.63;0.75;;;;;;;18.67;54.13;99808.38;4851877;29;19912;-81
2022/01/04 14:14:48;;;;;;;3.22;0.70;;;;;;;18.67;54.10;99811.84;4849371;29;20396;-80
2022/01/04 14:17:21;;;;;;;3.72;0.77;;;;;;;18.68;53.88;99810.94;4847343;29;20041;-79
2022/01/04 14:19:51;;;;;;;3.83;0.73;;;;;;;18.66;53.85;99822.28;4866230;29;20106;-81
2022/01/04 14:22:26;;;;;;;2.35;0.82;;;;;;;18.65;53.75;99825.81;4854452;29;20037;-81
2022/01/04 14:25:06;;;;;;;6.53;0.90;;;;;;;18.64;53.42;99834.50;4856600;29;20453;-79
2022/01/04 14:27:36;;;;;;;3.75;0.88;;;;;;;18.62;53.59;99833.72;4848976;29;20038;-79
2022/01/04 14:30:11;;;;;;;4.45;1.20;;;;;;;18.62;53.21;99836.34;4835353;29;20041;-79
2022/01/04 14:32:41;;;;;;;5.40;1.20;;;;;;;18.61;52.93;99835.47;4849384;29;20034;-79
2022/01/04 14:35:13;;;;;;;2.92;1.10;;;;;;;18.60;52.91;99841.59;4849800;29;20061;-79
2022/01/04 14:37:40;;;;;;;5.30;1.08;;;;;;;18.58;52.85;99839.94;4865987;29;20038;-79
2022/01/04 14:40:08;;;;;;;3.85;1.08;;;;;;;18.55;51.43;99843.44;4842961;29;20033;-81
2022/01/04 14:42:34;;;;;;;5.22;1.10;;;;;;;18.54;52.22;99836.56;4862262;29;20034;-81
2022/01/04 14:44:59;;;;;;;4.47;1.13;;;;;;;18.51;51.01;99836.66;4879488;29;20045;-81
2022/01/04 14:47:30;;;;;;;4.88;1.40;;;;;;;18.47;51.01;99833.28;4847033;29;20052;-81
2022/01/04 14:49:55;;;;;;;5.80;1.23;;;;;;;18.48;49.84;99834.13;4835695;29;20516;-79
2022/01/04 14:52:21;;;;;;;3.75;1.20;;;;;;;18.42;51.17;99843.00;4849008;29;20047;-79
2022/01/04 14:54:46;;;;;;;4.20;1.25;;;;;;;18.43;50.95;99836.88;4832278;29;20041;-79
2022/01/04 14:57:12;;;;;;;4.88;1.25;;;;;;;18.43;51.10;99833.41;4832182;29;20117;-79
2022/01/04 14:59:37;;;;;;;4.13;1.20;;;;;;;18.43;51.06;99841.22;4833118;29;20041;-79
2022/01/04 15:02:08;;;;;;;5.00;1.13;;;;;;;18.44;50.66;99846.41;4834145;29;20046;-79
2022/01/04 15:04:33;;;;;;;4.80;1.20;;;;;;;18.45;50.61;99845.50;4851779;29;20061;-79
2022/01/04 15:06:58;;;;;;;4.25;1.30;;;;;;;18.44;50.62;99843.78;4820453;29;20559;-79
2022/01/04 15:09:24;;;;;;;4.68;1.20;;;;;;;18.44;50.64;99846.41;4852299;29;20037;-79
2022/01/04 15:11:49;;;;;;;3.00;1.17;;;;;;;18.43;50.26;99857.69;4820944;29;20041;-79
2022/01/04 15:14:14;;;;;;;4.22;1.20;;;;;;;18.43;50.35;99856.84;4821170;29;20186;-79
2022/01/04 15:16:43;;;;;;;4.57;1.40;;;;;;;18.42;50.46;99860.34;4835126;29;20056;-79
2022/01/04 15:19:08;;;;;;;4.20;1.23;;;;;;;18.42;50.38;99866.44;4851042;29;20412;-79
2022/01/04 15:21:34;;;;;;;4.78;1.20;;;;;;;18.41;50.55;99867.31;4819313;29;20037;-79
2022/01/04 15:23:59;;;;;;;3.75;1.35;;;;;;;18.42;50.48;99868.16;4837351;29;20064;-79
2022/01/04 15:26:24;;;;;;;2.03;1.10;;;;;;;18.42;50.65;99879.47;4836925;29;20113;-79
2022/01/04 15:28:50;;;;;;;3.30;1.33;;;;;;;18.43;50.45;99880.31;4851413;29;20074;-79
2022/01/04 15:31:15;;;;;;;5.25;1.40;;;;;;;18.42;50.43;99887.28;4834913;29;20037;-79
2022/01/04 15:33:41;;;;;;;2.75;1.08;;;;;;;18.42;50.64;99889.88;4867146;29;20480;-79
2022/01/04 15:36:10;;;;;;;3.80;1.08;;;;;;;18.42;50.66;99896.81;4851153;29;20441;-80
2022/01/04 15:38:38;;;;;;;3.08;1.15;;;;;;;18.42;50.65;99886.38;4889915;24;20058;-81
2022/01/04 15:41:06;;;;;;;3.95;1.30;;;;;;;18.41;50.75;99895.97;4882068;29;20037;-79
2022/01/04 15:43:32;;;;;;;2.80;1.10;;;;;;;18.40;50.65;99902.09;4882302;29;20085;-79
2022/01/04 15:45:58;;;;;;;3.38;1.30;;;;;;;18.41;50.74;99900.31;4868168;29;20037;-79
2022/01/04 15:48:23;;;;;;;2.80;1.08;;;;;;;18.41;50.81;99895.97;4868089;29;20049;-78
2022/01/04 15:50:51;;;;;;;4.43;1.20;;;;;;;18.42;50.73;99899.41;4873787;29;20042;-78
2022/01/04 15:53:17;;;;;;;6.80;1.30;;;;;;;18.41;50.85;99903.78;4889237;29;20097;-78
2022/01/04 15:55:43;;;;;;;8.45;1.33;;;;;;;18.42;50.96;99912.44;4873032;29;20030;-79
2022/01/04 15:58:09;;;;;;;3.50;1.10;;;;;;;18.41;51.12;99915.97;4872188;29;20115;-79
2022/01/04 16:00:35;;;;;;;6.43;1.30;;;;;;;18.41;50.97;99918.56;4867121;29;20049;-79
2022/01/04 16:03:01;;;;;;;3.00;1.00;;;;;;;18.41;51.12;99921.16;4881413;29;20110;-78
2022/01/04 16:05:28;;;;;;;4.15;0.95;;;;;;;18.41;51.07;99923.78;4883545;29;20127;-78
2022/01/04 16:07:53;;;;;;;3.53;0.90;;;;;;;18.41;50.92;99928.97;4877389;29;20030;-82
2022/01/04 16:10:19;;;;;;;4.18;1.17;;;;;;;18.40;51.02;99927.25;5157941;24;20080;-79
2022/01/04 16:13:00;;;;;;;4.85;1.30;;;;;;;18.40;51.06;99938.56;4909684;24;20081;-80
2022/01/04 16:15:34;;;;;;;4.50;1.30;;;;;;;18.40;51.08;99930.75;4835267;29;20042;-79
2022/01/04 16:23:32;;;;;;;7.93;1.10;;;;;;;18.41;51.32;99931.59;4833537;29;20040;-79
2022/01/04 16:26:00;;;;;;;5.45;1.30;;;;;;;18.41;51.36;99928.97;4804007;29;20065;-78
2022/01/04 16:28:26;;;;;;;5.90;1.33;;;;;;;18.41;51.29;99935.03;4817985;29;20049;-78
2022/01/04 16:30:51;;;;;;;7.97;1.80;;;;;;;18.40;51.46;99930.75;4815762;29;20038;-77
2022/01/04 16:33:17;;;;;;;6.28;1.27;;;;;;;18.40;51.50;99935.06;4832747;29;20094;-77
2022/01/04 16:35:42;;;;;;;8.82;1.52;;;;;;;18.40;51.68;99924.66;4816979;29;20109;-78
2022/01/04 16:38:07;;;;;;;9.65;1.52;;;;;;;18.41;51.55;99931.59;4801329;29;20098;-78
2022/01/04 16:40:33;;;;;;;7.80;1.70;;;;;;;18.40;51.53;99929.84;4830960;29;20034;-77
2022/01/04 16:42:59;;;;;;;6.95;1.48;;;;;;;18.40;51.64;99932.47;4827320;29;20046;-78
2022/01/04 16:45:26;;;;;;;9.27;1.58;;;;;;;18.40;51.58;99927.25;4826545;29;20477;-79
2022/01/04 16:47:52;;;;;;;9.10;1.55;;;;;;;18.39;51.64;99928.16;4827987;29;20117;-77
2022/01/04 16:50:18;;;;;;;12.88;1.83;;;;;;;18.39;51.55;99934.22;4833020;29;20042;-79
2022/01/04 16:52:44;;;;;;;5.82;1.35;;;;;;;18.40;51.40;99937.69;4834742;29;20058;-79
2022/01/04 16:55:12;;;;;;;5.03;1.25;;;;;;;18.39;51.64;99938.59;4820357;29;20033;-80
2022/01/04 16:57:38;;;;;;;8.80;1.52;;;;;;;18.39;51.91;99934.22;4821089;29;20094;-77
2022/01/04 17:02:53;;;;;;;7.32;1.30;;;;;;;18.38;51.71;99939.47;5154308;23;20054;-82
2022/01/04 17:05:19;;;;;;;8.07;1.52;;;;;;;18.38;51.49;99945.56;4866860;29;20077;-79
2022/01/04 17:07:47;;;;;;;7.05;1.33;;;;;;;18.37;52.09;99945.59;4844838;29;20037;-79
2022/01/04 17:10:12;;;;;;;7.75;1.80;;;;;;;18.36;52.01;99946.50;4829842;29;20060;-81
2022/01/04 17:18:37;;;;;;;7.10;1.75;;;;;;;18.40;52.05;99950.69;5067331;23;20125;-81
2022/01/04 17:27:47;;;;;;;5.80;1.38;;;;;;;18.37;52.24;99936.00;4893748;29;20066;-83
2022/01/04 17:30:30;;;;;;;4.60;1.50;;;;;;;18.37;52.33;99938.63;4839717;29;20041;-82
2022/01/04 17:33:17;;;;;;;9.57;1.38;;;;;;;18.39;52.47;99949.84;4885259;29;20048;-82
2022/01/04 17:35:50;;;;;;;7.05;1.63;;;;;;;18.37;52.51;99956.84;4892445;29;20060;-79
2022/01/04 17:38:17;;;;;;;7.35;1.75;;;;;;;18.38;52.32;99965.50;4894928;29;20037;-79
2022/01/04 17:40:43;;;;;;;5.97;1.55;;;;;;;18.38;52.42;99974.22;4882242;29;20048;-82
2022/01/04 17:43:09;;;;;;;6.00;1.40;;;;;;;18.37;52.25;99980.28;4891782;29;20037;-78
2022/01/04 17:45:34;;;;;;;5.40;1.88;;;;;;;18.37;52.41;99987.25;4872329;29;20037;-79
2022/01/04 17:48:02;;;;;;;5.93;1.52;;;;;;;18.36;52.46;99981.19;4857368;29;20251;-80
2022/01/04 17:50:29;;;;;;;8.23;1.70;;;;;;;18.34;52.50;99977.78;4892843;29;20105;-79
2022/01/04 17:52:55;;;;;;;5.80;1.50;;;;;;;18.37;52.48;99976.84;4873205;29;20061;-79
2022/01/04 17:55:20;;;;;;;7.60;1.48;;;;;;;18.34;52.43;99971.72;4886038;29;20136;-80
2022/01/04 17:57:46;;;;;;;8.73;1.67;;;;;;;18.34;52.34;99971.72;4855669;29;20048;-80
2022/01/04 18:00:11;;;;;;;5.28;1.40;;;;;;;18.34;52.51;99972.56;4856828;29;20113;-80
2022/01/04 18:02:38;;;;;;;8.60;1.98;;;;;;;18.14;51.88;99980.91;4858803;29;20048;-80
2022/01/04 18:18:02;;;;;;;8.32;1.50;;;;;;;18.08;52.28;99975.84;5206049;23;20057;-81
2022/01/04 18:21:10;;;;;;;4.82;1.33;;;;;;;18.11;52.41;99987.94;4849918;29;20046;-83
2022/01/04 18:27:32;;;;;;;5.82;1.60;;;;;;;18.05;52.37;99982.00;4866376;29;20044;-84
2022/01/04 18:30:00;;;;;;;4.97;1.40;;;;;;;18.07;52.47;99981.94;4840967;29;20029;-82
2022/01/04 18:35:29;;;;;;;4.93;1.08;;;;;;;18.06;52.35;99985.44;5796639;23;20045;-79
2022/01/04 18:38:00;;;;;;;8.33;1.50;;;;;;;18.06;52.48;99981.09;4887249;29;20045;-81
2022/01/04 18:40:26;;;;;;;3.03;1.10;;;;;;;18.07;52.40;99976.72;4887756;29;20021;-82
2022/01/04 18:42:58;;;;;;;4.97;1.30;;;;;;;18.03;52.18;99964.69;4889900;29;20041;-82
2022/01/04 18:45:40;;;;;;;5.70;1.52;;;;;;;18.05;52.57;99970.69;4872612;29;20029;-82
2022/01/04 18:54:26;;;;;;;4.43;1.30;;;;;;;18.03;52.21;99967.28;5891234;23;20051;-81
2022/01/04 18:56:55;;;;;;;3.45;1.17;;;;;;;18.02;52.59;99979.44;4848992;29;20081;-83
2022/01/04 18:59:31;;;;;;;4.15;1.52;;;;;;;18.04;52.22;99987.22;4848099;29;20043;-82
2022/01/04 19:02:46;;;;;;;4.28;1.30;;;;;;;18.00;52.31;99983.84;4887997;23;20036;-82
2022/01/04 19:05:57;;;;;;;4.35;1.30;;;;;;;17.99;52.44;99976.09;4885436;29;20053;-83
2022/01/04 19:09:07;;;;;;;3.25;1.10;;;;;;;18.00;52.33;99977.78;4865214;29;20056;-82
2022/01/04 19:11:33;;;;;;;6.25;1.58;;;;;;;17.98;52.06;99975.22;4825129;29;20039;-82
2022/01/04 19:14:00;;;;;;;4.13;1.38;;;;;;;18.00;52.08;99976.03;4806620;29;20041;-82
2022/01/04 19:16:44;;;;;;;4.00;1.27;;;;;;;18.00;52.14;99978.63;4807934;29;20529;-80
2022/01/04 19:19:13;;;;;;;4.20;1.20;;;;;;;18.00;52.32;99981.22;4803182;29;20043;-82
2022/01/04 19:21:39;;;;;;;4.95;1.35;;;;;;;17.99;52.21;99992.56;4778619;30;20051;-81
2022/01/04 19:24:07;;;;;;;2.97;1.30;;;;;;;17.99;52.11;100002.13;4777121;30;20050;-81
2022/01/04 19:36:35;;;;;;;3.20;1.27;;;;;;;17.96;52.24;99990.00;4920577;23;20198;-80
2022/01/04 19:39:15;;;;;;;6.50;1.45;;;;;;;17.97;51.93;99996.09;4858844;29;20509;-80
2022/01/04 19:42:28;;;;;;;3.15;1.48;;;;;;;17.96;52.10;99991.75;4848280;29;20041;-84
2022/01/04 19:45:04;;;;;;;3.53;1.35;;;;;;;17.94;52.27;100002.19;4814746;29;20039;-82
2022/01/04 19:47:34;;;;;;;3.95;1.27;;;;;;;17.95;52.05;99995.28;4844949;29;20037;-81
2022/01/04 19:55:46;;;;;;;3.33;1.15;;;;;;;17.92;52.01;100009.22;5271277;23;20278;-81
2022/01/04 20:11:27;;;;;;;4.93;1.30;;;;;;;17.91;51.98;99996.25;5033632;23;20049;-82
2022/01/04 20:14:02;;;;;;;5.22;1.50;;;;;;;17.91;52.06;100011.84;4882392;29;20102;-82
2022/01/04 20:17:02;;;;;;;3.35;1.08;;;;;;;17.86;52.06;100012.81;4848080;29;20041;-82
2022/01/04 20:22:33;;;;;;;6.43;1.50;;;;;;;17.86;52.20;100007.59;4902085;29;20040;-80
2022/01/04 20:28:24;;;;;;;3.13;1.40;;;;;;;17.86;51.75;100017.19;4899321;29;20093;-80
2022/01/04 20:44:34;;;;;;;4.43;1.30;;;;;;;17.83;51.97;100015.50;4865712;29;20064;-83
2022/01/04 20:47:56;;;;;;;4.13;1.30;;;;;;;17.82;52.01;100024.19;4826311;29;20077;-81
2022/01/04 20:50:22;;;;;;;3.55;1.40;;;;;;;17.80;51.90;100025.94;4787146;30;20062;-80
2022/01/04 20:52:47;;;;;;;4.03;1.35;;;;;;;17.82;51.74;100033.75;4807071;29;20514;-80
2022/01/04 20:55:16;;;;;;;4.25;1.17;;;;;;;17.80;51.94;100023.34;4800558;29;20398;-80
2022/01/04 20:57:46;;;;;;;3.72;1.45;;;;;;;17.82;51.86;100026.78;4796806;29;20043;-80
2022/01/04 21:00:18;;;;;;;2.10;1.05;;;;;;;17.81;51.79;100024.19;4795720;29;20180;-80
2022/01/04 21:02:45;;;;;;;3.72;1.27;;;;;;;17.80;51.87;100017.28;4794851;29;20091;-79
2022/01/04 21:05:11;;;;;;;3.97;1.33;;;;;;;17.79;51.76;100019.03;4795600;29;20046;-80
2022/01/04 21:07:37;;;;;;;6.00;1.25;;;;;;;17.79;51.71;100019.03;4794562;29;20553;-79
2022/01/04 21:10:05;;;;;;;3.30;1.38;;;;;;;17.77;51.77;100018.22;4794023;29;20089;-79
2022/01/04 21:12:31;;;;;;;4.25;1.30;;;;;;;17.77;51.59;100022.53;4799588;29;20034;-80
2022/01/04 21:14:56;;;;;;;4.22;1.15;;;;;;;17.77;51.82;100030.34;4811653;29;20047;-80
2022/01/04 21:17:45;;;;;;;3.47;1.52;;;;;;;17.78;51.72;100042.47;4819359;29;20021;-86
2022/01/04 21:20:18;;;;;;;5.13;1.25;;;;;;;17.76;51.77;100049.47;4798061;29;20047;-84
2022/01/04 21:46:25;;;;;;;4.43;1.30;;;;;;;17.71;51.60;100059.97;4035647;23;1310694;-80
2022/01/04 21:48:54;;;;;;;2.88;1.08;;;;;;;17.70;51.69;100058.25;4859555;29;20045;-81
2022/01/04 21:51:42;;;;;;;3.47;1.13;;;;;;;17.70;51.39;100058.25;4863618;29;20021;-82
2022/01/04 21:56:43;;;;;;;3.85;1.30;;;;;;;17.70;51.69;100058.25;5016390;23;20072;-81
2022/01/04 22:02:45;;;;;;;2.92;1.30;;;;;;;17.68;51.58;100060.91;4903792;29;20036;-81
2022/01/04 22:08:30;;;;;;;3.70;1.60;;;;;;;17.67;51.63;100056.59;4901179;29;20048;-81
2022/01/04 22:16:34;;;;;;;3.25;1.40;;;;;;;17.68;51.50;100063.50;4912724;29;20073;-80
2022/01/04 22:19:01;;;;;;;4.15;1.33;;;;;;;17.67;51.46;100050.53;4897086;29;20033;-82
2022/01/04 22:21:27;;;;;;;6.45;1.40;;;;;;;17.68;51.24;100063.50;4891901;29;20044;-81
2022/01/04 22:23:52;;;;;;;4.93;1.52;;;;;;;17.68;51.50;100060.03;4887389;29;20029;-80
2022/01/04 22:26:18;;;;;;;4.93;1.80;;;;;;;17.65;51.34;100073.97;4886985;29;20067;-80
2022/01/04 22:28:43;;;;;;;3.10;1.35;;;;;;;17.65;51.43;100073.13;4872890;29;20037;-81
2022/01/04 22:31:09;;;;;;;3.58;1.60;;;;;;;17.65;51.39;100066.16;4904368;29;20071;-81
2022/01/04 22:33:34;;;;;;;3.35;1.30;;;;;;;17.66;51.39;100067.03;4904957;29;20056;-81
2022/01/04 22:36:00;;;;;;;4.13;1.55;;;;;;;17.64;51.45;100074.88;4888311;29;20036;-80
2022/01/04 22:38:26;;;;;;;4.40;1.30;;;;;;;17.65;51.37;100078.31;4888859;29;20068;-81
2022/01/04 22:40:51;;;;;;;4.60;1.33;;;;;;;17.64;51.06;100077.47;4889602;29;20069;-80
2022/01/04 22:43:18;;;;;;;4.57;1.50;;;;;;;17.64;51.64;100071.44;4889082;29;20040;-80
2022/01/04 22:45:44;;;;;;;4.55;1.50;;;;;;;17.65;51.28;100078.31;4889523;29;20489;-81
2022/01/04 22:48:10;;;;;;;4.63;1.42;;;;;;;17.64;51.37;100081.84;4873831;29;20104;-81
2022/01/04 23:08:44;;;;;;;3.83;1.60;;;;;;;17.60;51.34;100093.19;5438532;23;20057;-80
2022/01/04 23:38:24;;;;;;;3.80;1.30;;;;;;;17.53;50.91;100091.59;5392564;23;20073;-81
2022/01/04 23:40:50;;;;;;;3.75;1.33;;;;;;;17.55;50.79;100102.81;4891794;29;20049;-81
2022/01/04 23:43:16;;;;;;;4.60;1.40;;;;;;;17.55;51.10;100105.41;4889209;29;20053;-81
2022/01/04 23:45:41;;;;;;;4.40;1.40;;;;;;;17.52;50.68;100106.34;4889354;29;20047;-81
2022/01/04 23:48:07;;;;;;;3.58;1.48;;;;;;;17.53;51.09;100105.47;4889731;29;20036;-81
2022/01/04 23:50:35;;;;;;;3.63;1.40;;;;;;;17.51;50.90;100106.38;4873085;29;20088;-81
2022/01/04 23:53:01;;;;;;;3.03;1.30;;;;;;;17.53;50.97;100102.00;4874687;29;20045;-81
2022/01/04 23:55:27;;;;;;;4.53;1.67;;;;;;;17.52;50.83;100105.50;4889981;29;20064;-81
2022/01/04 23:57:52;;;;;;;3.70;1.48;;;;;;;17.51;50.91;100099.44;4875377;29;20037;-81
